Time;durP1;ratioP1;P1;durP2;ratioP2;P2;SDS_P1;SDS_P2;PMS_P1;PMS_P2;Temp;Humidity;BMP_temperature;BMP_pressure;BME280_temperature;BME280_humidity;BME280_pressure;Samples;Min_cycle;Max_cycle;Signal;HPM_P1;HPM_P2
2021/09/22 00:00:21;;;;;;;17.65;9.43;;;;;;;4.60;85.86;91792.09;4965599;28;20077;-87
2021/09/22 00:02:46;;;;;;;17.45;10.63;;;;;;;4.71;87.17;91784.00;4965170;28;20034;-86
2021/09/22 00:05:12;;;;;;;18.75;10.18;;;;;;;4.71;87.46;91784.00;4949131;28;20076;-86
2021/09/22 00:07:37;;;;;;;16.73;10.95;;;;;;;4.66;88.04;91771.09;4949138;28;20018;-86
2021/09/22 00:10:05;;;;;;;17.52;10.15;;;;;;;4.70;88.23;91777.28;4980857;28;20052;-88
2021/09/22 00:12:30;;;;;;;19.60;10.63;;;;;;;4.67;88.52;91772.66;4949029;28;20026;-86
2021/09/22 00:14:56;;;;;;;18.75;10.05;;;;;;;4.66;89.29;91780.66;4997183;28;20033;-86
2021/09/22 00:17:21;;;;;;;21.70;11.45;;;;;;;4.67;88.75;91783.00;4963555;28;20029;-88
2021/09/22 00:19:46;;;;;;;17.80;10.43;;;;;;;4.90;88.16;91767.81;4980217;28;20414;-88
2021/09/22 00:22:12;;;;;;;19.58;10.35;;;;;;;4.75;88.12;91754.00;4963932;28;20033;-87
2021/09/22 00:24:37;;;;;;;17.65;10.45;;;;;;;4.78;88.07;91763.03;4948308;28;20555;-87
2021/09/22 00:27:03;;;;;;;21.02;10.60;;;;;;;4.77;88.33;91759.69;4962929;28;20512;-86
2021/09/22 00:29:29;;;;;;;22.00;11.25;;;;;;;4.59;89.14;91755.16;4963333;28;20030;-87
2021/09/22 00:31:54;;;;;;;18.38;10.38;;;;;;;4.60;89.25;91763.69;4963317;28;20026;-87
2021/09/22 00:34:19;;;;;;;17.90;10.70;;;;;;;4.62;89.11;91764.94;4963821;28;20067;-86
2021/09/22 00:36:45;;;;;;;20.65;11.10;;;;;;;4.62;89.27;91767.53;4962254;28;20034;-87
2021/09/22 00:39:11;;;;;;;20.67;11.27;;;;;;;4.64;88.76;91765.47;4946717;28;20037;-85
2021/09/22 00:41:36;;;;;;;21.50;11.23;;;;;;;4.62;88.13;91777.09;4994673;28;20026;-87
2021/09/22 00:44:02;;;;;;;19.83;11.43;;;;;;;4.54;89.02;91773.28;4984029;28;20026;-86
2021/09/22 00:46:27;;;;;;;17.27;10.02;;;;;;;4.49;87.54;91768.94;4966497;28;20041;-86
2021/09/22 00:48:53;;;;;;;16.70;9.93;;;;;;;4.45;87.21;91770.50;4966002;28;20471;-88
2021/09/22 00:51:18;;;;;;;18.92;10.75;;;;;;;4.49;88.62;91773.34;4946867;28;20023;-87
2021/09/22 00:53:43;;;;;;;19.38;10.68;;;;;;;4.54;88.02;91778.44;4988711;28;20053;-87
2021/09/22 00:56:09;;;;;;;21.23;11.73;;;;;;;4.47;88.49;91770.22;4993932;28;20023;-88
2021/09/22 00:58:34;;;;;;;20.05;11.95;;;;;;;4.56;89.01;91760.88;4966775;28;20029;-87
2021/09/22 01:01:00;;;;;;;19.77;11.07;;;;;;;4.50;89.14;91769.69;4966616;28;20026;-88
2021/09/22 01:03:25;;;;;;;20.95;10.82;;;;;;;4.47;89.40;91763.25;4950421;28;20057;-88
2021/09/22 01:05:52;;;;;;;21.35;10.50;;;;;;;4.40;88.98;91769.78;4950972;28;20041;-89
2021/09/22 01:08:17;;;;;;;20.98;10.25;;;;;;;4.31;88.34;91765.19;4967132;28;20398;-87
2021/09/22 01:10:46;;;;;;;23.00;10.07;;;;;;;4.35;88.10;91765.41;4950584;28;20046;-89
2021/09/22 01:13:12;;;;;;;17.52;10.02;;;;;;;4.30;87.53;91761.03;4966898;28;20029;-88
2021/09/22 01:15:38;;;;;;;15.75;9.10;;;;;;;4.29;87.02;91759.50;4967962;28;20022;-87
2021/09/22 01:18:07;;;;;;;15.43;8.57;;;;;;;4.29;87.03;91761.31;4951667;28;20018;-87
2021/09/22 01:20:33;;;;;;;20.85;10.05;;;;;;;4.18;88.33;91763.19;4952332;28;20026;-88
2021/09/22 01:23:00;;;;;;;19.25;9.98;;;;;;;4.18;89.27;91755.47;4968537;28;20092;-88
2021/09/22 01:25:25;;;;;;;18.23;10.20;;;;;;;4.25;88.80;91750.00;4985123;28;20026;-87
2021/09/22 01:27:55;;;;;;;20.67;10.43;;;;;;;4.19;89.42;91757.00;4986797;28;20423;-87
2021/09/22 01:30:20;;;;;;;30.08;10.15;;;;;;;4.44;89.77;91748.31;4982577;28;20027;-89
2021/09/22 01:32:54;;;;;;;19.08;9.57;;;;;;;4.33;90.22;91744.25;5010837;28;20061;-87
2021/09/22 01:35:19;;;;;;;21.70;11.63;;;;;;;4.34;90.19;91742.44;4959430;28;20529;-88
2021/09/22 01:37:45;;;;;;;19.90;10.45;;;;;;;4.19;90.09;91746.69;4945676;28;20026;-88
2021/09/22 01:40:10;;;;;;;21.00;11.07;;;;;;;4.18;89.58;91744.38;4961656;28;20023;-87
2021/09/22 01:42:36;;;;;;;20.63;9.57;;;;;;;4.13;89.12;91746.97;4945582;28;20058;-87
2021/09/22 01:45:08;;;;;;;16.13;9.27;;;;;;;4.08;87.98;91747.78;4977925;28;20027;-86
2021/09/22 01:47:34;;;;;;;16.35;8.30;;;;;;;4.13;87.17;91747.75;4977405;28;20109;-85
2021/09/22 01:50:01;;;;;;;30.17;10.05;;;;;;;4.08;87.08;91745.22;4964370;28;20034;-87
2021/09/22 01:52:26;;;;;;;34.33;10.77;;;;;;;3.85;87.53;91746.63;4933884;28;20022;-86
2021/09/22 01:54:52;;;;;;;20.27;9.63;;;;;;;3.92;88.23;91754.84;4966383;28;20038;-89
2021/09/22 01:57:17;;;;;;;17.15;10.50;;;;;;;3.96;88.81;91763.59;4965955;28;20031;-86
2021/09/22 01:59:43;;;;;;;19.90;9.25;;;;;;;3.98;88.87;91760.75;4934112;28;20641;-88
2021/09/22 02:02:08;;;;;;;16.85;9.35;;;;;;;4.00;89.54;91762.03;4998267;28;20026;-87
2021/09/22 02:04:34;;;;;;;17.58;9.98;;;;;;;4.03;88.80;91763.31;4982296;28;20022;-86
2021/09/22 02:06:59;;;;;;;18.92;8.60;;;;;;;4.01;89.53;91765.38;4966481;28;20018;-87
2021/09/22 02:09:24;;;;;;;15.48;8.70;;;;;;;4.03;89.21;91756.34;4982815;28;20071;-88
2021/09/22 02:11:50;;;;;;;17.98;9.55;;;;;;;4.02;89.65;91757.34;4984345;28;20387;-88
2021/09/22 02:14:15;;;;;;;17.98;9.90;;;;;;;4.05;89.87;91751.66;4982318;28;20513;-86
2021/09/22 02:16:40;;;;;;;38.67;11.38;;;;;;;4.09;90.26;91754.47;4983607;28;20042;-86
2021/09/22 02:19:06;;;;;;;36.92;10.75;;;;;;;4.05;90.19;91758.63;4949553;28;20019;-88
2021/09/22 02:21:31;;;;;;;48.42;11.48;;;;;;;4.00;90.78;91753.50;4969426;28;20032;-87
2021/09/22 02:23:57;;;;;;;34.13;11.25;;;;;;;3.98;90.61;91751.19;4970229;28;20022;-88
2021/09/22 02:26:22;;;;;;;21.15;10.38;;;;;;;3.95;91.00;91756.09;4973352;28;20033;-87
2021/09/22 02:28:48;;;;;;;22.00;9.07;;;;;;;3.96;91.29;91753.28;5001714;28;20022;-86
2021/09/22 02:31:13;;;;;;;15.75;9.27;;;;;;;4.07;89.27;91752.19;5018788;28;20026;-89
2021/09/22 02:33:38;;;;;;;20.60;8.82;;;;;;;3.94;86.85;91745.03;5019642;28;20042;-89
2021/09/22 02:36:04;;;;;;;14.32;8.27;;;;;;;3.72;87.16;91739.47;5018137;28;20037;-87
2021/09/22 02:38:29;;;;;;;16.85;8.45;;;;;;;3.62;87.12;91731.78;4954026;28;20045;-89
2021/09/22 02:40:55;;;;;;;17.00;7.63;;;;;;;3.66;87.59;91733.56;4954307;28;20022;-88
2021/09/22 02:43:20;;;;;;;14.90;7.93;;;;;;;3.62;88.14;91722.25;4954879;28;20027;-87
2021/09/22 02:45:46;;;;;;;13.23;7.93;;;;;;;3.63;88.16;91723.78;4971385;28;20038;-87
2021/09/22 02:48:11;;;;;;;15.60;8.55;;;;;;;3.51;87.26;91720.75;4970801;28;20019;-86
2021/09/22 02:50:37;;;;;;;14.40;8.27;;;;;;;3.51;86.75;91721.53;5033754;23;20044;-86
2021/09/22 02:53:02;;;;;;;14.68;8.15;;;;;;;3.43;86.91;91718.72;5019242;28;20021;-86
2021/09/22 02:55:27;;;;;;;14.52;7.85;;;;;;;3.58;85.74;91719.44;5019934;28;20029;-86
2021/09/22 02:57:53;;;;;;;14.93;8.10;;;;;;;3.43;86.39;91709.19;5020118;28;20021;-87
2021/09/22 03:00:18;;;;;;;13.80;7.88;;;;;;;3.35;86.59;91710.50;5019471;28;20025;-86
2021/09/22 03:02:44;;;;;;;13.30;7.65;;;;;;;3.30;86.73;91720.06;5020088;28;20447;-86
2021/09/22 03:05:09;;;;;;;14.57;8.00;;;;;;;3.21;86.86;91714.69;5036726;28;20087;-86
2021/09/22 03:07:35;;;;;;;13.88;7.68;;;;;;;3.19;87.11;91719.34;5019327;28;20524;-86
2021/09/22 03:10:00;;;;;;;14.10;8.23;;;;;;;3.24;87.58;91731.41;5019270;28;20083;-86
2021/09/22 03:12:25;;;;;;;11.52;7.60;;;;;;;3.19;87.78;91736.59;5019443;28;20025;-86
2021/09/22 03:14:54;;;;;;;13.90;6.80;;;;;;;3.12;87.51;91734.31;5003178;28;20397;-87
2021/09/22 03:17:19;;;;;;;12.73;7.63;;;;;;;3.25;86.97;91723.44;5036544;28;20056;-85
2021/09/22 03:19:45;;;;;;;13.55;7.70;;;;;;;3.20;86.97;91727.84;4991367;28;20478;-86
2021/09/22 03:22:10;;;;;;;15.10;8.30;;;;;;;3.15;87.53;91718.31;5016035;28;20048;-86
2021/09/22 03:24:36;;;;;;;14.15;8.27;;;;;;;3.37;88.35;91723.13;4983476;28;20029;-86
2021/09/22 03:27:01;;;;;;;15.40;8.25;;;;;;;3.40;87.99;91719.28;4988320;28;20080;-86
2021/09/22 03:29:26;;;;;;;19.27;10.18;;;;;;;3.45;89.14;91717.41;4963859;28;20053;-86
2021/09/22 03:31:52;;;;;;;17.90;10.05;;;;;;;3.31;88.77;91717.22;4963665;28;20025;-86
2021/09/22 03:34:17;;;;;;;15.05;8.52;;;;;;;3.27;87.77;91720.59;4979917;28;20477;-86
2021/09/22 03:36:43;;;;;;;16.63;8.00;;;;;;;3.28;86.60;91717.75;4963628;28;20022;-86
2021/09/22 03:39:08;;;;;;;13.98;7.60;;;;;;;3.19;86.85;91703.13;4979078;28;20026;-86
2021/09/22 03:41:34;;;;;;;16.02;8.10;;;;;;;3.37;85.59;91704.34;4979781;28;20026;-86
2021/09/22 03:43:59;;;;;;;14.20;7.95;;;;;;;3.20;86.64;91708.00;4970996;28;20548;-87
2021/09/22 03:46:25;;;;;;;15.07;8.23;;;;;;;3.04;87.86;91706.50;4990731;28;20030;-86
2021/09/22 03:48:50;;;;;;;14.73;8.00;;;;;;;3.00;87.49;91706.25;4984125;28;20021;-87
2021/09/22 03:51:17;;;;;;;16.00;8.65;;;;;;;3.03;87.00;91703.16;4999115;28;20060;-86
2021/09/22 03:53:42;;;;;;;16.95;9.23;;;;;;;2.97;86.91;91700.84;5015468;28;20021;-85
2021/09/22 03:56:07;;;;;;;18.33;8.63;;;;;;;2.86;87.75;91700.09;4999232;28;20034;-86
2021/09/22 03:58:33;;;;;;;18.02;8.45;;;;;;;2.70;87.12;91694.22;4998523;28;20026;-86
2021/09/22 04:00:59;;;;;;;12.80;7.25;;;;;;;2.64;87.13;91692.69;4999098;28;20017;-86
2021/09/22 04:03:24;;;;;;;15.73;7.93;;;;;;;2.69;87.69;91684.22;4979678;28;20025;-86
2021/09/22 04:05:49;;;;;;;15.20;8.73;;;;;;;2.62;87.63;91689.63;4979571;28;20028;-86
2021/09/22 04:08:15;;;;;;;17.35;9.27;;;;;;;2.57;88.20;91692.19;4962799;28;20014;-86
2021/09/22 04:10:40;;;;;;;20.50;9.77;;;;;;;2.51;88.96;91688.88;4963075;28;20034;-87
2021/09/22 04:13:06;;;;;;;15.98;8.50;;;;;;;2.52;88.98;91684.47;4962197;28;20034;-86
2021/09/22 04:15:31;;;;;;;15.23;8.00;;;;;;;2.54;88.95;91693.47;4963814;28;20534;-86
2021/09/22 04:17:56;;;;;;;15.50;8.73;;;;;;;2.67;88.04;91691.41;4993738;28;20025;-87
2021/09/22 04:20:22;;;;;;;17.05;8.88;;;;;;;2.67;88.63;91687.03;5007306;28;20052;-86
2021/09/22 04:22:47;;;;;;;16.10;8.73;;;;;;;2.74;89.29;91692.66;4982146;28;20026;-86
2021/09/22 04:25:13;;;;;;;17.88;8.57;;;;;;;2.81;89.78;91689.81;4998477;28;20033;-86
2021/09/22 04:27:38;;;;;;;16.80;8.90;;;;;;;2.81;89.81;91698.31;4982685;28;20018;-86
2021/09/22 04:30:05;;;;;;;16.20;8.77;;;;;;;2.85;89.39;91696.75;5015572;28;20026;-85
2021/09/22 04:32:30;;;;;;;14.63;8.40;;;;;;;2.88;89.45;91703.97;4981521;28;20033;-86
2021/09/22 04:34:56;;;;;;;25.42;9.27;;;;;;;2.93;89.81;91699.81;4982264;28;20028;-87
2021/09/22 04:37:21;;;;;;;26.42;10.27;;;;;;;3.20;89.78;91700.25;4997960;28;20029;-86
2021/09/22 04:39:47;;;;;;;18.23;10.25;;;;;;;3.03;90.52;91704.94;4982009;28;20509;-86
2021/09/22 04:42:12;;;;;;;26.02;10.30;;;;;;;3.08;90.70;91707.53;4981947;28;20477;-86
2021/09/22 04:44:37;;;;;;;22.55;9.25;;;;;;;2.97;90.23;91706.00;4987940;28;20030;-86
2021/09/22 04:47:03;;;;;;;14.40;8.43;;;;;;;3.01;90.21;91702.66;4978377;28;20025;-87
2021/09/22 04:49:30;;;;;;;18.77;9.30;;;;;;;2.96;88.89;91699.31;4962535;28;20029;-86
2021/09/22 04:51:55;;;;;;;14.38;8.43;;;;;;;2.99;88.09;91691.06;4962306;28;20029;-86
2021/09/22 04:54:20;;;;;;;17.50;8.68;;;;;;;2.82;88.56;91694.69;4978637;28;20437;-86
2021/09/22 04:56:46;;;;;;;16.05;8.50;;;;;;;2.62;88.27;91702.50;4962396;28;20037;-86
2021/09/22 04:59:11;;;;;;;15.45;8.77;;;;;;;2.74;88.46;91707.34;4978380;28;20022;-85
2021/09/22 05:01:37;;;;;;;16.63;8.68;;;;;;;2.63;88.13;91709.94;4978268;28;20030;-86
2021/09/22 05:04:02;;;;;;;17.08;9.13;;;;;;;2.70;87.87;91709.66;4978603;28;20080;-86
2021/09/22 05:06:28;;;;;;;18.48;8.57;;;;;;;2.79;87.49;91713.28;4994554;28;20037;-86
2021/09/22 05:08:53;;;;;;;14.07;8.13;;;;;;;2.63;87.98;91722.03;4994100;28;20029;-86
2021/09/22 05:11:19;;;;;;;16.10;9.00;;;;;;;2.60;88.91;91728.47;4978260;28;20030;-86
2021/09/22 05:13:44;;;;;;;15.02;7.85;;;;;;;2.61;88.42;91718.94;4994555;28;20032;-86
2021/09/22 05:16:09;;;;;;;19.10;10.02;;;;;;;2.66;88.45;91721.53;4981510;28;20051;-86
2021/09/22 05:18:35;;;;;;;16.23;9.00;;;;;;;2.74;89.56;91723.56;5013702;28;20478;-86
2021/09/22 05:21:00;;;;;;;17.45;8.98;;;;;;;2.66;89.57;91729.25;5030990;28;20025;-86
2021/09/22 05:23:26;;;;;;;18.20;9.35;;;;;;;2.61;89.77;91724.09;5009986;28;20052;-86
2021/09/22 05:25:51;;;;;;;16.05;8.82;;;;;;;2.62;89.41;91730.78;4997479;28;20028;-86
2021/09/22 05:28:16;;;;;;;15.50;8.60;;;;;;;2.62;88.24;91725.66;5012638;28;20432;-86
2021/09/22 05:30:43;;;;;;;16.60;8.93;;;;;;;2.63;87.43;91735.66;4978069;28;20031;-86
2021/09/22 05:33:10;;;;;;;16.58;8.52;;;;;;;2.53;87.17;91734.91;5017179;28;20107;-86
2021/09/22 05:35:35;;;;;;;16.52;8.15;;;;;;;2.51;87.95;91729.25;5001200;28;20163;-86
2021/09/22 05:38:01;;;;;;;18.92;9.13;;;;;;;2.58;88.07;91727.16;5001931;28;20554;-86
2021/09/22 05:40:27;;;;;;;16.60;8.85;;;;;;;2.65;88.35;91732.84;4965183;28;20112;-86
2021/09/22 05:42:52;;;;;;;15.57;8.45;;;;;;;2.70;87.86;91735.41;5031316;28;20440;-86
2021/09/22 05:45:18;;;;;;;16.08;9.05;;;;;;;2.67;88.41;91733.34;5013842;28;20393;-86
2021/09/22 05:47:43;;;;;;;17.15;9.05;;;;;;;2.59;88.13;91737.22;4997335;28;20044;-86
2021/09/22 05:50:09;;;;;;;20.08;8.50;;;;;;;2.68;88.38;91728.97;4980946;28;20022;-86
2021/09/22 05:52:34;;;;;;;17.17;9.05;;;;;;;2.71;88.57;91741.31;4997097;28;20078;-87
2021/09/22 05:55:00;;;;;;;18.27;9.15;;;;;;;2.74;88.21;91739.00;4997495;28;20395;-86
2021/09/22 05:57:25;;;;;;;14.15;8.07;;;;;;;2.84;88.22;91739.00;4996797;28;20278;-85
2021/09/22 05:59:51;;;;;;;18.98;9.40;;;;;;;2.97;89.12;91734.31;4980946;28;20021;-86
2021/09/22 06:02:16;;;;;;;18.17;9.20;;;;;;;3.20;88.51;91733.75;4980962;28;20095;-86
2021/09/22 06:04:42;;;;;;;17.33;8.75;;;;;;;3.20;88.31;91732.97;5013840;28;20504;-86
2021/09/22 06:07:07;;;;;;;20.17;9.95;;;;;;;3.17;89.63;91743.81;4996977;28;20531;-86
2021/09/22 06:09:32;;;;;;;21.02;9.30;;;;;;;3.15;88.85;91744.09;4980656;28;20030;-86
2021/09/22 06:11:58;;;;;;;17.35;9.13;;;;;;;3.25;89.06;91744.06;4980926;28;20025;-86
2021/09/22 06:14:23;;;;;;;21.10;9.35;;;;;;;3.38;88.49;91747.09;4980972;28;20029;-86
2021/09/22 06:16:49;;;;;;;21.67;11.60;;;;;;;3.52;88.25;91743.69;5013009;28;20504;-86
2021/09/22 06:19:14;;;;;;;26.30;12.80;;;;;;;3.54;90.05;91746.00;4997132;28;20056;-86
2021/09/22 06:21:39;;;;;;;31.27;13.65;;;;;;;3.58;90.82;91752.94;4996784;28;20075;-86
2021/09/22 06:24:05;;;;;;;29.48;14.18;;;;;;;3.73;91.80;91753.91;4979459;28;20028;-87
2021/09/22 06:26:30;;;;;;;23.92;11.85;;;;;;;3.77;91.16;91755.69;4970561;28;20022;-86
2021/09/22 06:28:56;;;;;;;22.05;11.55;;;;;;;3.65;90.25;91752.66;4996761;28;20032;-86
2021/09/22 06:31:21;;;;;;;23.48;12.10;;;;;;;3.87;90.09;91751.53;4977422;28;20030;-86
2021/09/22 06:33:47;;;;;;;25.73;12.95;;;;;;;3.95;90.13;91756.09;4988872;28;20044;-86
2021/09/22 06:36:12;;;;;;;28.00;14.45;;;;;;;4.06;90.47;91748.06;4983209;28;20040;-87
2021/09/22 06:38:38;;;;;;;30.90;13.68;;;;;;;4.11;90.40;91755.00;4984244;28;20028;-87
2021/09/22 06:41:03;;;;;;;40.58;20.17;;;;;;;4.19;90.67;91757.00;5016640;28;20018;-87
2021/09/22 06:43:28;;;;;;;32.30;16.38;;;;;;;4.32;91.04;91756.41;5000582;28;20029;-86
2021/09/22 06:45:54;;;;;;;31.80;15.65;;;;;;;4.48;91.30;91756.28;4984271;28;20025;-87
2021/09/22 06:48:19;;;;;;;31.27;14.77;;;;;;;4.60;91.97;91764.47;4984180;28;20535;-86
2021/09/22 06:50:45;;;;;;;34.35;14.98;;;;;;;4.68;92.11;91763.88;5013082;28;20414;-87
2021/09/22 06:53:10;;;;;;;36.88;16.90;;;;;;;4.86;92.28;91764.25;4965455;28;20118;-87
2021/09/22 06:55:36;;;;;;;34.92;16.85;;;;;;;4.92;92.12;91758.78;4964536;28;20520;-87
2021/09/22 06:58:01;;;;;;;35.53;15.93;;;;;;;5.03;91.63;91764.59;4981189;28;20463;-87
2021/09/22 07:00:27;;;;;;;27.60;13.18;;;;;;;5.02;91.49;91769.00;4965120;28;20025;-88
2021/09/22 07:02:52;;;;;;;29.05;13.50;;;;;;;5.09;90.70;91765.31;4964916;28;20025;-87
2021/09/22 07:05:18;;;;;;;27.83;13.63;;;;;;;5.20;91.13;91772.72;4983214;28;20473;-87
2021/09/22 07:07:46;;;;;;;37.25;17.35;;;;;;;5.42;91.24;91767.06;4978948;28;20444;-88
2021/09/22 07:10:11;;;;;;;39.25;17.70;;;;;;;5.60;90.83;91775.91;4996827;28;20026;-86
2021/09/22 07:12:37;;;;;;;37.33;17.77;;;;;;;5.68;90.91;91769.34;4981122;28;20034;-88
2021/09/22 07:15:02;;;;;;;41.60;18.85;;;;;;;5.77;90.57;91772.09;4980079;28;20033;-87
2021/09/22 07:17:28;;;;;;;40.15;17.98;;;;;;;5.95;90.13;91771.38;4981700;28;20117;-87
2021/09/22 07:19:53;;;;;;;44.60;19.20;;;;;;;6.03;88.88;91768.16;4989851;28;20037;-87
2021/09/22 07:22:19;;;;;;;39.17;18.38;;;;;;;6.13;88.97;91769.88;4984324;28;20061;-88
2021/09/22 07:24:44;;;;;;;35.75;17.33;;;;;;;6.31;90.03;91776.09;4984489;28;20025;-87
2021/09/22 07:27:09;;;;;;;36.42;17.00;;;;;;;6.56;89.52;91782.72;4982908;28;20029;-87
2021/09/22 07:29:35;;;;;;;37.88;18.38;;;;;;;6.70;89.46;91773.94;4983358;28;20055;-83
2021/09/22 07:32:00;;;;;;;36.42;18.05;;;;;;;6.88;89.61;91771.59;4999370;28;20029;-86
2021/09/22 07:34:26;;;;;;;37.05;17.88;;;;;;;7.16;86.83;91775.78;4995362;28;20088;-86
2021/09/22 07:36:52;;;;;;;33.65;17.50;;;;;;;7.28;85.57;91777.16;4979648;28;20029;-86
2021/09/22 07:39:18;;;;;;;34.13;17.63;;;;;;;7.32;85.99;91778.13;4982498;28;20034;-87
2021/09/22 07:41:43;;;;;;;39.85;18.92;;;;;;;7.49;86.46;91783.53;4979543;28;20030;-87
2021/09/22 07:44:08;;;;;;;40.88;18.75;;;;;;;7.55;84.08;91787.56;4963497;28;20029;-87
2021/09/22 07:46:34;;;;;;;36.60;18.25;;;;;;;7.68;83.62;91772.31;4963663;28;20033;-86
2021/09/22 07:49:00;;;;;;;37.15;18.42;;;;;;;7.68;82.57;91774.91;4996099;28;20026;-87
2021/09/22 07:51:25;;;;;;;38.38;18.50;;;;;;;7.84;83.09;91778.72;4977435;28;20033;-86
2021/09/22 07:53:50;;;;;;;35.22;17.27;;;;;;;7.97;80.96;91783.13;4986249;28;20021;-86
2021/09/22 07:56:16;;;;;;;39.30;19.15;;;;;;;7.95;81.12;91784.47;4995902;28;20021;-86
2021/09/22 07:58:42;;;;;;;34.50;17.95;;;;;;;7.97;80.97;91785.72;4982204;28;20036;-87
2021/09/22 08:01:09;;;;;;;34.13;17.70;;;;;;;8.09;79.18;91775.63;5021436;28;20168;-87
2021/09/22 08:03:34;;;;;;;34.00;16.98;;;;;;;8.12;80.32;91775.03;4983485;28;20056;-87
2021/09/22 08:05:59;;;;;;;33.78;17.90;;;;;;;8.13;79.40;91771.38;4983216;28;20065;-87
2021/09/22 08:08:25;;;;;;;33.83;17.45;;;;;;;8.29;78.83;91768.47;4970939;28;20033;-88
2021/09/22 08:10:50;;;;;;;32.70;17.60;;;;;;;8.26;80.30;91771.63;4964238;28;20022;-89
2021/09/22 08:13:16;;;;;;;34.90;17.90;;;;;;;8.45;79.29;91767.09;4963099;28;20069;-87
2021/09/22 08:15:42;;;;;;;30.38;16.70;;;;;;;8.51;78.77;91781.50;4963785;28;20056;-88
2021/09/22 08:18:07;;;;;;;31.90;17.13;;;;;;;8.70;78.59;91778.00;4967207;28;20084;-88
2021/09/22 08:20:33;;;;;;;29.55;16.58;;;;;;;8.70;78.09;91778.00;4963576;28;20022;-88
2021/09/22 08:22:58;;;;;;;31.90;17.10;;;;;;;8.77;77.48;91780.94;4962920;28;20022;-88
2021/09/22 08:25:24;;;;;;;34.58;17.17;;;;;;;8.92;77.84;91785.78;4970338;28;20081;-88
2021/09/22 08:27:49;;;;;;;33.15;17.23;;;;;;;8.99;76.81;91780.94;5012575;28;20021;-89
2021/09/22 08:30:15;;;;;;;30.60;16.55;;;;;;;9.08;77.63;91779.16;5011871;28;20017;-88
2021/09/22 08:32:41;;;;;;;29.90;16.20;;;;;;;9.16;77.45;91779.53;5012697;28;20044;-89
2021/09/22 08:35:07;;;;;;;30.85;16.42;;;;;;;9.26;79.00;91779.28;5027677;28;20025;-88
2021/09/22 08:37:32;;;;;;;32.60;16.48;;;;;;;9.41;78.33;91780.72;5011275;28;20050;-89
2021/09/22 08:39:58;;;;;;;31.25;17.23;;;;;;;9.65;78.42;91781.13;4995647;28;20025;-88
2021/09/22 08:42:23;;;;;;;33.70;16.83;;;;;;;9.61;74.83;91779.41;4996230;28;20040;-89
2021/09/22 08:44:50;;;;;;;28.30;17.13;;;;;;;9.65;75.08;91775.16;4995608;28;20486;-88
2021/09/22 08:47:15;;;;;;;29.67;17.00;;;;;;;9.40;74.07;91773.97;5028495;28;20032;-89
2021/09/22 08:49:41;;;;;;;35.03;17.02;;;;;;;9.40;74.24;91772.16;5012181;28;20026;-88
2021/09/22 08:52:06;;;;;;;31.88;17.10;;;;;;;9.39;75.33;91768.00;5003912;23;20062;-89
2021/09/22 08:54:32;;;;;;;33.20;17.40;;;;;;;9.56;74.93;91773.28;4974106;28;20142;-89
2021/09/22 08:57:00;;;;;;;32.28;17.42;;;;;;;9.37;74.24;91780.53;4988135;28;20395;-89
2021/09/22 08:59:26;;;;;;;31.45;16.17;;;;;;;9.46;74.35;91783.94;4987134;28;20078;-88
2021/09/22 09:02:15;;;;;;;32.08;17.13;;;;;;;9.42;74.34;91782.25;4959212;28;20550;-89
2021/09/22 09:04:42;;;;;;;31.73;16.73;;;;;;;9.34;74.07;91774.09;4951765;29;20035;-89
2021/09/22 09:07:08;;;;;;;36.90;17.63;;;;;;;9.42;73.84;91777.03;4952158;29;20027;-89
2021/09/22 09:09:35;;;;;;;30.48;17.17;;;;;;;9.47;73.27;91780.28;4952985;28;20023;-88
2021/09/22 09:12:01;;;;;;;29.33;16.02;;;;;;;9.40;72.06;91774.75;4952070;28;20035;-88
2021/09/22 09:14:29;;;;;;;28.73;16.15;;;;;;;9.58;73.75;91771.16;4952799;28;20101;-89
2021/09/22 09:16:58;;;;;;;32.00;17.15;;;;;;;9.70;73.68;91777.63;4936725;29;20023;-89
2021/09/22 09:35:17;;;;;;;26.35;17.25;;;;;;;10.44;71.16;91775.06;5108866;27;20368;-87
2021/09/22 09:37:46;;;;;;;25.17;15.30;;;;;;;10.56;69.24;91777.03;5073951;28;20039;-87
2021/09/22 09:40:22;;;;;;;23.08;14.55;;;;;;;10.57;68.38;91770.00;5036814;22;20053;-92
2021/09/22 09:42:49;;;;;;;23.60;14.65;;;;;;;10.67;67.48;91772.28;4985288;28;20050;-92
2021/09/22 09:45:14;;;;;;;22.45;14.02;;;;;;;10.91;69.18;91769.97;4981764;28;20019;-92
2021/09/22 09:47:41;;;;;;;23.30;14.30;;;;;;;10.73;67.15;91771.06;4966319;28;20034;-91
2021/09/22 09:50:20;;;;;;;20.02;12.60;;;;;;;10.84;64.27;91774.88;4933971;28;20027;-92
2021/09/22 09:52:54;;;;;;;21.85;13.15;;;;;;;11.08;68.32;91771.81;4978508;28;20023;-92
2021/09/22 09:55:20;;;;;;;22.65;14.35;;;;;;;10.94;67.25;91761.53;4970434;28;20014;-91
2021/09/22 09:57:47;;;;;;;21.45;13.32;;;;;;;11.16;68.38;91767.63;4966653;28;20054;-92
2021/09/22 10:00:13;;;;;;;19.67;13.07;;;;;;;11.23;64.60;91763.47;4960803;28;20038;-92
2021/09/22 10:02:38;;;;;;;18.83;12.82;;;;;;;11.14;62.84;91767.97;4990971;28;20034;-91
2021/09/22 10:05:04;;;;;;;19.73;12.95;;;;;;;10.90;65.28;91759.88;4992326;28;20033;-92
2021/09/22 10:07:34;;;;;;;19.88;11.55;;;;;;;10.86;63.32;91758.97;4993859;28;20112;-94
2021/09/22 10:10:00;;;;;;;20.17;12.93;;;;;;;10.81;64.82;91764.31;4971885;28;20058;-92
2021/09/22 10:12:25;;;;;;;22.13;14.07;;;;;;;10.75;66.19;91755.91;4970139;28;20033;-93
2021/09/22 10:14:50;;;;;;;20.10;12.95;;;;;;;11.13;67.45;91763.03;5036022;28;20023;-92
2021/09/22 10:17:16;;;;;;;20.08;12.80;;;;;;;11.11;64.23;91770.44;5034052;28;20023;-92
2021/09/22 10:19:45;;;;;;;23.33;13.43;;;;;;;11.17;64.51;91769.19;5050264;28;20480;-93
2021/09/22 10:22:11;;;;;;;21.30;13.05;;;;;;;11.21;67.41;91764.88;5034119;28;20023;-92
2021/09/22 10:24:37;;;;;;;19.95;12.60;;;;;;;11.58;69.65;91767.84;4983057;28;20023;-92
2021/09/22 10:27:03;;;;;;;19.77;12.25;;;;;;;11.45;64.76;91756.53;4969786;28;20483;-92
2021/09/22 10:29:29;;;;;;;23.02;14.10;;;;;;;11.39;65.03;91760.38;4952825;28;20023;-92
2021/09/22 10:31:56;;;;;;;21.70;13.80;;;;;;;11.33;65.11;91762.38;4967953;28;20034;-89
2021/09/22 10:34:32;;;;;;;22.98;14.02;;;;;;;11.27;64.46;91753.19;4970767;28;20019;-92
2021/09/22 10:36:58;;;;;;;20.65;13.15;;;;;;;11.41;68.70;91753.78;4953368;28;20118;-91
2021/09/22 10:39:33;;;;;;;22.33;14.25;;;;;;;11.65;66.68;91749.84;4954331;28;20399;-92
2021/09/22 10:41:59;;;;;;;19.17;12.75;;;;;;;11.82;67.25;91747.16;4969757;28;20030;-92
2021/09/22 10:44:35;;;;;;;19.10;12.70;;;;;;;12.12;64.58;91747.19;4940567;28;20023;-90
2021/09/22 10:47:30;;;;;;;23.13;13.20;;;;;;;12.17;66.29;91754.84;4957052;28;20092;-92
2021/09/22 10:49:56;;;;;;;18.88;12.75;;;;;;;12.12;64.76;91747.97;4972406;28;20094;-92
2021/09/22 10:52:31;;;;;;;21.95;13.30;;;;;;;12.25;65.76;91743.56;4972372;28;20537;-92
2021/09/22 10:55:07;;;;;;;17.00;10.52;;;;;;;12.27;60.37;91746.66;4940175;28;20027;-92
2021/09/22 10:57:32;;;;;;;19.15;11.63;;;;;;;12.33;61.17;91739.38;4974042;28;20030;-92
2021/09/22 11:00:10;;;;;;;21.52;11.70;;;;;;;12.48;59.51;91740.66;4972440;28;20042;-93
2021/09/22 11:02:44;;;;;;;17.48;11.63;;;;;;;12.34;62.48;91731.22;4974067;28;20112;-92
2021/09/22 11:05:10;;;;;;;17.52;11.32;;;;;;;12.50;61.50;91728.78;4956262;28;20039;-92
2021/09/22 11:08:02;;;;;;;14.35;10.07;;;;;;;12.41;60.99;91730.72;4956601;28;20114;-92
2021/09/22 11:10:34;;;;;;;15.43;10.82;;;;;;;12.42;62.24;91727.78;4972077;28;20084;-92
2021/09/22 11:13:31;;;;;;;13.77;9.23;;;;;;;12.38;59.33;91726.88;4972286;28;20023;-91
2021/09/22 11:16:07;;;;;;;14.20;9.07;;;;;;;12.45;60.43;91721.16;4971654;28;20027;-91
2021/09/22 11:18:32;;;;;;;14.35;9.23;;;;;;;12.73;60.31;91718.00;4946858;28;20487;-93
2021/09/22 11:20:59;;;;;;;17.25;10.20;;;;;;;12.55;59.22;91725.22;4972401;28;20053;-92
2021/09/22 11:23:25;;;;;;;14.88;9.93;;;;;;;12.84;63.57;91716.53;4966992;28;20043;-92
2021/09/22 11:25:51;;;;;;;12.88;9.02;;;;;;;12.79;57.46;91711.47;4950216;28;20696;-92
2021/09/22 11:28:17;;;;;;;14.88;7.78;;;;;;;12.59;56.10;91715.66;4935750;29;20051;-92
2021/09/22 11:30:44;;;;;;;10.35;7.10;;;;;;;13.01;60.01;91726.06;4952144;29;20035;-91
2021/09/22 11:33:23;;;;;;;11.50;6.80;;;;;;;12.91;57.59;91730.59;4936018;28;20041;-91
2021/09/22 11:35:48;;;;;;;9.80;6.85;;;;;;;12.78;56.83;91723.78;4936076;28;20510;-91
2021/09/22 11:38:14;;;;;;;10.48;6.80;;;;;;;13.20;59.35;91721.09;5036003;28;20027;-94